Details for Lufthansa at EDDM




Go Back


Latest METAR
Local Time

EDDM 201450Z 34003KT 3800 -SN BR SCT009 OVC030 M02/M04 Q1014 R88/290095 TEMPO 5000 BKN010

21/02/2018, 16:02:29

Description
Results
Lufthansa Logo
Number of Pilots based at EDDM
0 Pilots Based here
Number of Lufthansa Flights Departed from EDDM
1 Flights Departed
Number of Lufthansa Flights Arrived at EDDM
0 Flights Arrived
Number of Lufthansa Schedules Departing from EDDM
316 Schedules
Number of Lufthansa Schedules Arriving at EDDM
318 Schedules
Number of Lufthansa Schedules Departing from EDDM availible today
209 Schedules Today
Number of Lufthansa Schedules Arriving at EDDM availible today
215 Schedules Today
Average Landing Rate at EDDM
-180 fpm
Lufthansa Average Landing Rate at EDDM
0 fpm
Total Fuel Purchased at EDDM by Lufthansa
3,823.78 kgs / 8,429.91 lbs

Pilots Based at EDDM


Pilot ID
Pilot Name
Pilot Rank
No. of Flights
No. of Flying Hours
There are no pilots assigned to this hub!   Will you be the first?
Content